createdAt,value
2018-12-26T00:04:26.613Z,-0.6
2018-12-26T00:09:27.582Z,-0.7
2018-12-26T00:14:29.923Z,-0.8
2018-12-26T00:19:32.358Z,-0.7
2018-12-26T00:24:34.475Z,-0.6
2018-12-26T00:29:36.769Z,-0.6
2018-12-26T00:39:41.290Z,-0.5
2018-12-26T00:44:43.647Z,-0.6
2018-12-26T00:49:45.898Z,-0.6
2018-12-26T00:54:48.337Z,-0.6
2018-12-26T00:59:50.508Z,-0.6
2018-12-26T01:05:06.653Z,-0.6
2018-12-26T01:09:56.253Z,-0.6
2018-12-26T01:14:59.162Z,-0.6
2018-12-26T01:19:59.794Z,-0.6
2018-12-26T01:25:02.127Z,-0.6
2018-12-26T01:30:04.298Z,-0.6
2018-12-26T01:35:06.611Z,-0.6
2018-12-26T01:40:08.964Z,-0.6
2018-12-26T01:45:11.167Z,-0.6
2018-12-26T01:50:13.482Z,-0.6
2018-12-26T01:55:15.837Z,-0.6
2018-12-26T02:00:18.050Z,-0.6
2018-12-26T02:05:20.408Z,-0.6
2018-12-26T02:10:22.635Z,-0.6
2018-12-26T02:15:24.937Z,-0.6
2018-12-26T02:20:27.238Z,-0.7
2018-12-26T02:25:29.503Z,-0.7
2018-12-26T02:30:31.729Z,-0.7
2018-12-26T02:35:34.072Z,-0.7
2018-12-26T02:40:36.380Z,-0.7
2018-12-26T02:45:40.098Z,-0.7
2018-12-26T02:50:41.056Z,-0.7
2018-12-26T02:55:43.365Z,-0.7
2018-12-26T03:00:46.528Z,-0.7
2018-12-26T03:05:47.818Z,-0.8
2018-12-26T03:10:50.237Z,-0.7
2018-12-26T03:20:54.689Z,-0.8
2018-12-26T03:25:57.077Z,-0.7
2018-12-26T03:30:59.390Z,-0.7
2018-12-26T03:36:01.635Z,-0.7
2018-12-26T03:41:03.893Z,-0.8
2018-12-26T03:46:06.202Z,-0.7
2018-12-26T03:51:08.580Z,-0.8
2018-12-26T03:56:10.798Z,-0.8
2018-12-26T04:01:13.109Z,-0.8
2018-12-26T04:06:15.479Z,-0.8
2018-12-26T04:11:17.770Z,-0.8
2018-12-26T04:16:19.952Z,-0.9
2018-12-26T04:26:24.572Z,-0.9
2018-12-26T04:31:26.816Z,-0.9
2018-12-26T04:36:29.121Z,-0.9
2018-12-26T04:41:31.486Z,-0.9
2018-12-26T04:46:33.711Z,-0.9
2018-12-26T04:51:36.005Z,-0.9
2018-12-26T04:56:38.402Z,-0.9
2018-12-26T05:01:42.184Z,-0.9
2018-12-26T05:06:42.953Z,-1
2018-12-26T05:11:45.293Z,-1
2018-12-26T05:16:47.510Z,-1.1
2018-12-26T05:21:49.799Z,-1
2018-12-26T05:26:52.037Z,-1
2018-12-26T05:31:54.456Z,-1
2018-12-26T05:36:56.762Z,-1
2018-12-26T05:41:59.041Z,-1
2018-12-26T05:47:01.268Z,-1
2018-12-26T05:52:03.609Z,-1.1
2018-12-26T05:57:05.845Z,-1.1
2018-12-26T06:02:10.391Z,-1.2
2018-12-26T06:07:10.438Z,-1.2
2018-12-26T06:12:12.911Z,-1.2
2018-12-26T06:22:20.868Z,-1.2
2018-12-26T06:27:22.424Z,-1.2
2018-12-26T06:32:24.627Z,-1.2
2018-12-26T06:37:27.072Z,-1.2
2018-12-26T06:42:29.442Z,-1.2
2018-12-26T06:47:31.634Z,-1.2
2018-12-26T06:52:34.034Z,-1.2
2018-12-26T06:57:36.113Z,-1.2
2018-12-26T07:02:38.521Z,-1.2
2018-12-26T07:07:40.897Z,-1.2
2018-12-26T07:12:43.052Z,-1.2
2018-12-26T07:17:45.249Z,-1.2
2018-12-26T07:22:47.711Z,-1.2
2018-12-26T07:27:49.987Z,-1.1
2018-12-26T07:32:52.140Z,-1.2
2018-12-26T07:37:54.534Z,-1.2
2018-12-26T07:42:56.860Z,-1.1
2018-12-26T07:47:59.112Z,-1.2
2018-12-26T07:53:01.397Z,-1.1
2018-12-26T07:58:03.641Z,-1.1
2018-12-26T08:03:05.994Z,-1.1
2018-12-26T08:08:08.383Z,-1.1
2018-12-26T08:13:10.787Z,-1.1
2018-12-26T08:18:12.997Z,-1
2018-12-26T08:23:15.163Z,-1
2018-12-26T08:28:26.312Z,-0.9
2018-12-26T08:33:19.845Z,-0.9
2018-12-26T08:38:22.162Z,-0.8
2018-12-26T08:43:24.248Z,-0.8
2018-12-26T08:48:26.567Z,-0.7
2018-12-26T08:53:29.064Z,-0.7
2018-12-26T08:58:35.265Z,-0.6
2018-12-26T09:03:33.450Z,-0.6
2018-12-26T09:08:35.901Z,-0.6
2018-12-26T09:13:38.025Z,-0.5
2018-12-26T09:18:40.344Z,-0.5
2018-12-26T09:23:42.660Z,-0.5
2018-12-26T09:28:44.960Z,-0.4
2018-12-26T09:33:47.402Z,-0.3
2018-12-26T09:38:49.582Z,-0.3
2018-12-26T09:43:51.860Z,-0.2
2018-12-26T09:48:54.247Z,-0.2
2018-12-26T09:53:56.536Z,-0.1
2018-12-26T09:58:58.679Z,-0.1
2018-12-26T10:04:01.147Z,0
2018-12-26T10:09:03.342Z,0
2018-12-26T10:14:05.717Z,0.1
2018-12-26T10:19:07.933Z,0.1
2018-12-26T10:24:10.224Z,0.2
2018-12-26T10:29:12.438Z,0.3
2018-12-26T10:34:14.877Z,0.4
2018-12-26T10:39:17.013Z,0.5
2018-12-26T10:44:19.335Z,0.7
2018-12-26T10:49:21.703Z,0.8
2018-12-26T10:54:24.001Z,0.9
2018-12-26T10:59:26.302Z,1
2018-12-26T11:04:28.604Z,1.1
2018-12-26T11:09:30.794Z,1.2
2018-12-26T11:14:33.226Z,1.3
2018-12-26T11:19:35.453Z,1.5
2018-12-26T11:24:37.708Z,1.6
2018-12-26T11:29:40.083Z,1.8
2018-12-26T11:34:42.339Z,1.9
2018-12-26T11:39:44.656Z,2
2018-12-26T11:44:46.976Z,2.4
2018-12-26T11:49:49.219Z,2.7
2018-12-26T11:54:51.516Z,3.1
2018-12-26T11:59:53.824Z,2.9
2018-12-26T12:04:56.118Z,2.8
2018-12-26T12:09:58.466Z,2.7
2018-12-26T12:15:00.660Z,2.6
2018-12-26T12:20:03.015Z,2.6
2018-12-26T12:25:05.190Z,2.6
2018-12-26T12:32:07.698Z,2.6
2018-12-26T12:35:09.902Z,2.6
2018-12-26T12:40:12.143Z,2.7
2018-12-26T12:45:14.468Z,2.7
2018-12-26T12:50:16.809Z,2.8
2018-12-26T12:55:19.068Z,2.9
2018-12-26T13:00:21.406Z,2.9
2018-12-26T13:05:23.632Z,2.9
2018-12-26T13:15:38.172Z,3
2018-12-26T13:20:40.488Z,3.1
2018-12-26T13:25:42.913Z,3.1
2018-12-26T13:30:45.061Z,3.2
2018-12-26T13:35:47.535Z,3.2
2018-12-26T13:40:49.675Z,3.2
2018-12-26T13:45:51.967Z,3.2
2018-12-26T13:50:54.187Z,3.2
2018-12-26T13:55:56.600Z,3.2
2018-12-26T14:00:58.819Z,3.1
2018-12-26T14:06:01.212Z,3.1
2018-12-26T14:11:03.427Z,3.1
2018-12-26T14:16:05.709Z,3.1
2018-12-26T14:21:08.053Z,3.1
2018-12-26T14:26:10.257Z,3.1
2018-12-26T14:31:12.772Z,3.1
2018-12-26T14:36:14.955Z,3.1
2018-12-26T14:41:17.151Z,3.1
2018-12-26T14:46:19.466Z,3.1
2018-12-26T14:51:26.431Z,3.1
2018-12-26T14:56:24.231Z,3
2018-12-26T15:01:26.429Z,2.9
2018-12-26T15:06:28.631Z,2.8
2018-12-26T15:11:31.021Z,2.7
2018-12-26T15:16:33.185Z,2.7
2018-12-26T15:21:35.604Z,2.7
2018-12-26T15:26:37.882Z,2.5
2018-12-26T15:31:40.166Z,2.5
2018-12-26T15:36:42.438Z,2.3
2018-12-26T15:41:44.660Z,2.2
2018-12-26T15:46:46.982Z,2.1
2018-12-26T15:51:49.332Z,2
2018-12-26T15:56:51.599Z,1.9
2018-12-26T16:01:53.816Z,1.8
2018-12-26T16:06:56.300Z,1.8
2018-12-26T16:11:58.611Z,1.7
2018-12-26T16:17:00.710Z,1.6
2018-12-26T16:22:03.127Z,1.5
2018-12-26T16:27:05.386Z,1.4
2018-12-26T16:32:07.644Z,1.3
2018-12-26T16:37:09.963Z,1.2
2018-12-26T16:42:12.346Z,1.1
2018-12-26T16:47:14.522Z,1
2018-12-26T16:52:16.773Z,0.8
2018-12-26T16:57:19.264Z,0.7
2018-12-26T17:02:21.470Z,0.7
2018-12-26T17:07:23.754Z,0.6
2018-12-26T17:12:26.014Z,0.5
2018-12-26T17:17:28.321Z,0.5
2018-12-26T17:22:30.702Z,0.4
2018-12-26T17:27:32.813Z,0.3
2018-12-26T17:32:35.262Z,0.2
2018-12-26T17:37:37.486Z,0.2
2018-12-26T17:42:39.770Z,0.2
2018-12-26T17:47:42.134Z,0.4
2018-12-26T17:52:44.401Z,0.4
2018-12-26T17:57:46.662Z,0.4
2018-12-26T18:02:48.996Z,0.3
2018-12-26T18:07:51.259Z,0.3
2018-12-26T18:12:53.561Z,0.2
2018-12-26T18:17:55.909Z,0.3
2018-12-26T18:22:58.030Z,0.3
2018-12-26T18:28:00.367Z,0.3
2018-12-26T18:33:02.746Z,0.3
2018-12-26T18:38:05.023Z,0.3
2018-12-26T18:43:07.294Z,0.3
2018-12-26T18:48:09.657Z,0.2
2018-12-26T18:53:11.946Z,0.3
2018-12-26T18:58:14.211Z,0.2
2018-12-26T19:03:16.472Z,0.1
2018-12-26T19:08:18.794Z,0
2018-12-26T19:13:21.105Z,0
2018-12-26T19:18:23.461Z,-0.1
2018-12-26T19:23:25.655Z,-0.2
2018-12-26T19:28:27.994Z,-0.3
2018-12-26T19:33:30.236Z,-0.2
2018-12-26T19:38:32.550Z,-0.4
2018-12-26T19:43:34.829Z,-0.4
2018-12-26T19:48:37.129Z,-0.5
2018-12-26T19:53:39.436Z,-0.5
2018-12-26T19:58:41.717Z,-0.5
2018-12-26T20:03:43.954Z,-0.6
2018-12-26T20:08:46.252Z,-0.6
2018-12-26T20:13:48.670Z,-0.5
2018-12-26T20:18:50.869Z,-0.6
2018-12-26T20:23:53.198Z,-0.7
2018-12-26T20:28:55.585Z,-0.7
2018-12-26T20:33:57.814Z,-0.8
2018-12-26T20:39:00.012Z,-0.8
2018-12-26T20:44:02.416Z,-0.6
2018-12-26T20:49:04.582Z,-0.6
2018-12-26T20:54:06.918Z,-0.6
2018-12-26T20:59:09.228Z,-0.6
2018-12-26T21:04:11.562Z,-0.5
2018-12-26T21:09:13.880Z,-0.4
2018-12-26T21:14:16.083Z,-0.5
2018-12-26T21:19:18.530Z,-0.6
2018-12-26T21:24:20.718Z,-0.6
2018-12-26T21:29:23.091Z,-0.7
2018-12-26T21:34:26.341Z,-0.9
2018-12-26T21:39:27.582Z,-1
2018-12-26T21:44:29.787Z,-1
2018-12-26T21:49:32.098Z,-1
2018-12-26T21:54:34.484Z,-1
2018-12-26T21:59:36.815Z,-0.9
2018-12-26T22:04:39.125Z,-0.9
2018-12-26T22:09:41.366Z,-0.9
2018-12-26T22:14:43.604Z,-0.8
2018-12-26T22:19:45.902Z,-0.8
2018-12-26T22:24:48.247Z,-0.7
2018-12-26T22:29:50.624Z,-0.7
2018-12-26T22:34:52.802Z,-0.7
2018-12-26T22:39:55.061Z,-0.6
2018-12-26T22:44:57.467Z,-0.5
2018-12-26T22:49:59.608Z,-0.4
2018-12-26T22:55:02.048Z,-0.4
2018-12-26T23:00:04.227Z,-0.4
2018-12-26T23:05:06.582Z,-0.5
2018-12-26T23:10:08.820Z,-0.5
2018-12-26T23:15:11.228Z,-0.5
2018-12-26T23:20:15.289Z,-0.6
2018-12-26T23:25:17.028Z,-0.6
2018-12-26T23:30:18.168Z,-0.5
2018-12-26T23:35:20.263Z,-0.5
2018-12-26T23:40:22.678Z,-0.5
2018-12-26T23:45:24.952Z,-0.5
2018-12-26T23:50:27.217Z,-0.5
